Huron Colony, South Dakota
Current Conditions -  °F | °C
As of 2:55 AM on Sunday 26 Oct 2014 (Local Time) from KHON Reporting Station
Clear Clear  
Wind Chill: 41°   Ceiling: Unl
Heat Index: 45°   Visibility: 10mi
Dew Point: 31°   Wind: 8mph
Humidity: 58%   Direction: 140°SE
Pressure: 29.92"   Gusts: NA
Location:  44.3587°N, 98.2248°W
Report Text: KHON 260755Z AUTO 14007KT 10SM CLR 07/M01 A2992 RMK AO2 SLP132 T00721006
Loading
Personal Weather Stations






























Interactive Weather Map
Tropical Storm Tracking
New forecast layout! Learn more

10-Day Weather Forecast

Advertisements
Track Severe Weather on mobile